Time,TemperatureF,DewpointF,PressureIn,WindDirection,WindDirectionDegrees,WindSpeedMPH,WindSpeedGustMPH,Humidity,HourlyPrecipIn,Conditions,Clouds,dailyrainin,SoftwareType,DateUTC
2013-04-29 00:04:00,53.1,49.0,30.14,NNE,20,0.0,0.0,86,0.00,,,3.49,weatherlink.com 1.10,2013-04-29 04:04:00,
2013-04-29 00:19:00,53.0,49.0,30.14,NNE,20,0.0,0.0,86,0.00,,,3.49,weatherlink.com 1.10,2013-04-29 04:19:00,
2013-04-29 00:34:00,52.9,49.0,30.14,West,280,0.0,0.0,85,0.00,,,3.49,weatherlink.com 1.10,2013-04-29 04:34:00,
2013-04-29 00:50:00,52.9,49.0,30.14,West,280,0.0,0.0,85,0.00,,,3.49,weatherlink.com 1.10,2013-04-29 04:50:00,
2013-04-29 01:05:00,52.8,48.0,30.14,West,280,0.0,0.0,85,0.00,,,0.00,weatherlink.com 1.10,2013-04-29 05:05:00,
2013-04-29 01:20:00,52.8,48.0,30.15,West,280,0.0,0.0,85,0.00,,,0.00,weatherlink.com 1.10,2013-04-29 05:20:00,
2013-04-29 01:35:00,52.6,48.0,30.14,West,279,0.0,0.0,85,0.00,,,0.00,weatherlink.com 1.10,2013-04-29 05:35:00,
2013-04-29 01:50:00,52.3,48.0,30.15,West,280,0.0,0.0,85,0.00,,,0.00,weatherlink.com 1.10,2013-04-29 05:50:00,
2013-04-29 02:05:00,52.0,48.0,30.14,West,279,0.0,0.0,85,0.00,,,0.00,weatherlink.com 1.10,2013-04-29 06:05:00,
2013-04-29 02:20:00,51.8,48.0,30.14,NNW,338,0.0,0.0,85,0.00,,,0.00,weatherlink.com 1.10,2013-04-29 06:20:00,
2013-04-29 02:35:00,51.7,47.0,30.14,ESE,114,0.0,0.0,85,0.00,,,0.00,weatherlink.com 1.10,2013-04-29 06:35:00,
2013-04-29 02:50:00,51.9,48.0,30.13,NW,321,0.0,0.0,85,0.00,,,0.00,weatherlink.com 1.10,2013-04-29 06:50:00,
2013-04-29 03:05:00,51.9,48.0,30.12,NW,321,0.0,0.0,85,0.00,,,0.00,weatherlink.com 1.10,2013-04-29 07:05:00,
2013-04-29 03:20:00,51.8,48.0,30.11,NNW,333,0.0,0.0,85,0.00,,,0.00,weatherlink.com 1.10,2013-04-29 07:20:00,
2013-04-29 03:35:00,51.6,47.0,30.11,NNW,333,0.0,0.0,85,0.00,,,0.00,weatherlink.com 1.10,2013-04-29 07:35:00,
2013-04-29 03:50:00,51.4,47.0,30.12,NNW,333,0.0,0.0,85,0.00,,,0.00,weatherlink.com 1.10,2013-04-29 07:50:00,
2013-04-29 04:05:00,51.7,47.0,30.12,SSE,158,0.0,0.0,85,0.00,,,0.00,weatherlink.com 1.10,2013-04-29 08:05:00,
2013-04-29 04:20:00,51.6,47.0,30.11,SSE,158,0.0,0.0,85,0.00,,,0.00,weatherlink.com 1.10,2013-04-29 08:20:00,
2013-04-29 04:35:00,51.7,47.0,30.12,SSE,158,0.0,0.0,85,0.00,,,0.00,weatherlink.com 1.10,2013-04-29 08:35:00,
2013-04-29 04:50:00,52.1,48.0,30.12,ESE,121,0.0,0.0,85,0.00,,,0.00,weatherlink.com 1.10,2013-04-29 08:50:00,
2013-04-29 05:05:00,52.1,48.0,30.12,ESE,121,0.0,0.0,85,0.00,,,0.00,weatherlink.com 1.10,2013-04-29 09:05:00,
2013-04-29 05:20:00,52.1,48.0,30.12,ESE,121,0.0,0.0,85,0.00,,,0.00,weatherlink.com 1.10,2013-04-29 09:20:00,
2013-04-29 05:35:00,52.0,48.0,30.11,ESE,121,0.0,0.0,85,0.00,,,0.00,weatherlink.com 1.10,2013-04-29 09:35:00,
2013-04-29 05:50:00,51.9,48.0,30.11,ESE,121,0.0,0.0,85,0.00,,,0.00,weatherlink.com 1.10,2013-04-29 09:50:00,
2013-04-29 06:05:00,51.8,48.0,30.11,ESE,121,0.0,0.0,85,0.00,,,0.00,weatherlink.com 1.10,2013-04-29 10:05:00,
2013-04-29 06:20:00,51.8,48.0,30.11,ESE,121,0.0,0.0,85,0.00,,,0.00,weatherlink.com 1.10,2013-04-29 10:20:00,
2013-04-29 06:35:00,51.9,48.0,30.11,ESE,121,0.0,0.0,85,0.00,,,0.00,weatherlink.com 1.10,2013-04-29 10:35:00,
2013-04-29 06:50:00,52.0,48.0,30.12,ESE,121,0.0,0.0,85,0.00,,,0.00,weatherlink.com 1.10,2013-04-29 10:50:00,
2013-04-29 07:05:00,52.1,48.0,30.12,ESE,121,0.0,0.0,85,0.00,,,0.00,weatherlink.com 1.10,2013-04-29 11:05:00,
2013-04-29 07:20:00,52.1,48.0,30.12,ESE,122,0.0,0.0,85,0.00,,,0.00,weatherlink.com 1.10,2013-04-29 11:20:00,
2013-04-29 07:35:00,52.1,48.0,30.12,ESE,121,0.0,0.0,85,0.00,,,0.00,weatherlink.com 1.10,2013-04-29 11:35:00,
2013-04-29 07:50:00,52.1,48.0,30.13,ESE,121,0.0,0.0,85,0.00,,,0.00,weatherlink.com 1.10,2013-04-29 11:50:00,
2013-04-29 08:05:00,52.8,48.0,30.14,ESE,121,0.0,0.0,85,0.00,,,0.00,weatherlink.com 1.10,2013-04-29 12:05:00,
2013-04-29 08:20:00,52.9,49.0,30.14,NNE,22,0.0,0.0,85,0.00,,,0.00,weatherlink.com 1.10,2013-04-29 12:20:00,
2013-04-29 08:35:00,53.2,49.0,30.15,NNE,20,0.0,0.0,85,0.00,,,0.00,weatherlink.com 1.10,2013-04-29 12:35:00,
2013-04-29 08:50:00,53.6,49.0,30.15,NNE,22,0.0,0.0,85,0.00,,,0.00,weatherlink.com 1.10,2013-04-29 12:50:00,
2013-04-29 09:05:00,53.8,49.0,30.15,NNE,23,0.0,0.0,85,0.00,,,0.00,weatherlink.com 1.10,2013-04-29 13:05:00,
2013-04-29 09:20:00,53.8,49.0,30.15,NNE,24,0.0,0.0,85,0.00,,,0.00,weatherlink.com 1.10,2013-04-29 13:20:00,
2013-04-29 09:35:00,55.4,51.0,30.15,NNE,23,0.0,0.0,85,0.00,,,0.00,weatherlink.com 1.10,2013-04-29 13:35:00,
2013-04-29 09:50:00,55.9,52.0,30.15,West,278,0.0,0.0,85,0.00,,,0.00,weatherlink.com 1.10,2013-04-29 13:50:00,
2013-04-29 10:05:00,56.1,52.0,30.15,WSW,253,0.0,0.0,86,0.00,,,0.00,weatherlink.com 1.10,2013-04-29 14:05:00,
2013-04-29 10:20:00,56.4,52.0,30.15,SW,218,0.0,0.0,86,0.00,,,0.00,weatherlink.com 1.10,2013-04-29 14:20:00,
2013-04-29 10:35:00,56.8,54.0,30.15,WSW,252,0.0,0.0,90,0.00,,,0.00,weatherlink.com 1.10,2013-04-29 14:35:00,
2013-04-29 10:50:00,57.8,55.0,30.15,SW,231,0.0,1.0,90,0.00,,,0.00,weatherlink.com 1.10,2013-04-29 14:50:00,
2013-04-29 11:05:00,58.7,56.0,30.15,West,281,0.0,2.0,90,0.00,,,0.00,weatherlink.com 1.10,2013-04-29 15:05:00,
2013-04-29 11:20:00,59.6,57.0,30.15,NW,310,0.0,0.0,90,0.00,,,0.00,weatherlink.com 1.10,2013-04-29 15:20:00,
2013-04-29 11:35:00,59.5,56.0,30.15,WNW,284,0.0,3.0,87,0.00,,,0.00,weatherlink.com 1.10,2013-04-29 15:35:00,
2013-04-29 11:50:00,59.5,55.0,30.15,WSW,240,0.0,0.0,86,0.00,,,0.00,weatherlink.com 1.10,2013-04-29 15:50:00,
2013-04-29 12:05:00,60.1,56.0,30.15,SSW,212,0.0,1.0,85,0.00,,,0.00,weatherlink.com 1.10,2013-04-29 16:05:00,
2013-04-29 12:21:00,61.6,56.0,30.15,SSE,149,0.0,3.0,81,0.00,,,0.00,weatherlink.com 1.10,2013-04-29 16:21:00,
2013-04-29 12:36:00,63.3,57.0,30.15,West,265,0.0,3.0,80,0.00,,,0.00,weatherlink.com 1.10,2013-04-29 16:36:00,
2013-04-29 12:51:00,64.8,54.0,30.15,NW,308,0.0,0.0,69,0.00,,,0.00,weatherlink.com 1.10,2013-04-29 16:51:00,
2013-04-29 13:06:00,65.4,55.0,30.14,West,279,1.0,1.0,70,0.00,,,0.00,weatherlink.com 1.10,2013-04-29 17:06:00,
2013-04-29 13:21:00,66.4,54.0,30.13,North,3,0.0,0.0,65,0.00,,,0.00,weatherlink.com 1.10,2013-04-29 17:21:00,
2013-04-29 13:36:00,66.5,53.0,30.13,NW,309,0.0,3.0,63,0.00,,,0.00,weatherlink.com 1.10,2013-04-29 17:36:00,
2013-04-29 13:51:00,66.6,55.0,30.12,West,281,0.0,0.0,66,0.00,,,0.00,weatherlink.com 1.10,2013-04-29 17:51:00,
2013-04-29 14:06:00,66.8,53.0,30.12,WNW,291,0.0,1.0,61,0.00,,,0.00,weatherlink.com 1.10,2013-04-29 18:06:00,
2013-04-29 14:21:00,67.3,53.0,30.11,WNW,283,0.0,0.0,60,0.00,,,0.00,weatherlink.com 1.10,2013-04-29 18:21:00,
2013-04-29 14:36:00,67.8,52.0,30.11,North,354,0.0,1.0,58,0.00,,,0.00,weatherlink.com 1.10,2013-04-29 18:36:00,
2013-04-29 14:51:00,67.1,53.0,30.11,NW,321,0.0,0.0,61,0.00,,,0.00,weatherlink.com 1.10,2013-04-29 18:51:00,
2013-04-29 15:06:00,66.5,52.0,30.10,West,270,0.0,0.0,61,0.00,,,0.00,weatherlink.com 1.10,2013-04-29 19:06:00,
2013-04-29 15:21:00,67.1,53.0,30.10,WSW,252,0.0,0.0,62,0.00,,,0.00,weatherlink.com 1.10,2013-04-29 19:21:00,
2013-04-29 15:36:00,67.4,51.0,30.09,NW,313,0.0,0.0,57,0.00,,,0.00,weatherlink.com 1.10,2013-04-29 19:36:00,
2013-04-29 15:51:00,68.1,53.0,30.08,SW,226,0.0,0.0,59,0.00,,,0.00,weatherlink.com 1.10,2013-04-29 19:51:00,
2013-04-29 16:06:00,69.1,53.0,30.08,WSW,242,0.0,0.0,56,0.00,,,0.00,weatherlink.com 1.10,2013-04-29 20:06:00,
2013-04-29 16:21:00,69.6,52.0,30.07,SSW,200,0.0,6.0,53,0.00,,,0.00,weatherlink.com 1.10,2013-04-29 20:21:00,
2013-04-29 16:36:00,69.8,52.0,30.07,SSW,204,0.0,2.0,53,0.00,,,0.00,weatherlink.com 1.10,2013-04-29 20:36:00,
2013-04-29 16:51:00,70.9,53.0,30.06,WNW,283,0.0,1.0,54,0.00,,,0.00,weatherlink.com 1.10,2013-04-29 20:51:00,
2013-04-29 17:06:00,70.3,50.0,30.06,SSW,200,0.0,4.0,49,0.00,,,0.00,weatherlink.com 1.10,2013-04-29 21:06:00,
2013-04-29 17:21:00,72.0,52.0,30.05,WSW,240,0.0,1.0,49,0.00,,,0.00,weatherlink.com 1.10,2013-04-29 21:21:00,
2013-04-29 17:36:00,71.6,49.0,30.05,WSW,252,0.0,0.0,45,0.00,,,0.00,weatherlink.com 1.10,2013-04-29 21:36:00,
2013-04-29 17:51:00,71.1,51.0,30.05,WSW,248,0.0,0.0,49,0.00,,,0.00,weatherlink.com 1.10,2013-04-29 21:51:00,
2013-04-29 18:06:00,69.3,52.0,30.05,SSW,200,0.0,0.0,54,0.00,,,0.00,weatherlink.com 1.10,2013-04-29 22:06:00,
2013-04-29 18:21:00,70.4,51.0,30.05,ESE,105,0.0,1.0,51,0.00,,,0.00,weatherlink.com 1.10,2013-04-29 22:21:00,
2013-04-29 18:36:00,70.5,52.0,30.05,WNW,298,0.0,2.0,52,0.00,,,0.00,weatherlink.com 1.10,2013-04-29 22:36:00,
2013-04-29 18:51:00,69.3,53.0,30.05,West,262,0.0,0.0,56,0.00,,,0.00,weatherlink.com 1.10,2013-04-29 22:51:00,
2013-04-29 19:06:00,68.3,51.0,30.05,NW,312,0.0,1.0,55,0.00,,,0.00,weatherlink.com 1.10,2013-04-29 23:06:00,
2013-04-29 19:21:00,65.9,51.0,30.05,South,184,0.0,0.0,58,0.00,,,0.00,weatherlink.com 1.10,2013-04-29 23:21:00,
2013-04-29 19:36:00,64.2,53.0,30.05,SSW,196,0.0,0.0,66,0.00,,,0.00,weatherlink.com 1.10,2013-04-29 23:36:00,
2013-04-29 19:51:00,62.3,52.0,30.05,SSW,196,0.0,0.0,70,0.00,,,0.00,weatherlink.com 1.10,2013-04-29 23:51:00,
2013-04-29 20:06:00,61.4,52.0,30.06,SSW,197,0.0,0.0,72,0.00,,,0.00,weatherlink.com 1.10,2013-04-30 00:06:00,
2013-04-29 20:21:00,59.7,53.0,30.06,SSW,196,0.0,0.0,78,0.00,,,0.00,weatherlink.com 1.10,2013-04-30 00:21:00,
2013-04-29 20:36:00,58.1,52.0,30.06,SSW,196,0.0,0.0,79,0.00,,,0.00,weatherlink.com 1.10,2013-04-30 00:36:00,
2013-04-29 20:51:00,57.5,51.0,30.07,NW,315,0.0,0.0,80,0.00,,,0.00,weatherlink.com 1.10,2013-04-30 00:51:00,
2013-04-29 21:06:00,56.9,51.0,30.08,ENE,69,0.0,0.0,81,0.00,,,0.00,weatherlink.com 1.10,2013-04-30 01:06:00,
2013-04-29 21:21:00,56.3,51.0,30.08,ENE,69,0.0,0.0,82,0.00,,,0.00,weatherlink.com 1.10,2013-04-30 01:21:00,
2013-04-29 21:36:00,56.0,51.0,30.09,ENE,74,0.0,0.0,83,0.00,,,0.00,weatherlink.com 1.10,2013-04-30 01:36:00,
2013-04-29 21:52:00,55.5,51.0,30.09,ENE,74,0.0,0.0,84,0.00,,,0.00,weatherlink.com 1.10,2013-04-30 01:52:00,
2013-04-29 22:07:00,54.8,50.0,30.10,ENE,74,0.0,0.0,85,0.00,,,0.00,weatherlink.com 1.10,2013-04-30 02:07:00,
2013-04-29 22:22:00,54.1,50.0,30.10,ENE,74,0.0,0.0,86,0.00,,,0.00,weatherlink.com 1.10,2013-04-30 02:22:00,
2013-04-29 22:37:00,53.0,49.0,30.10,ENE,74,0.0,0.0,87,0.00,,,0.00,weatherlink.com 1.10,2013-04-30 02:37:00,
2013-04-29 22:52:00,52.1,49.0,30.11,ENE,73,0.0,0.0,88,0.00,,,0.00,weatherlink.com 1.10,2013-04-30 02:52:00,
2013-04-29 23:07:00,51.5,48.0,30.10,ENE,74,0.0,0.0,88,0.00,,,0.00,weatherlink.com 1.10,2013-04-30 03:07:00,
2013-04-29 23:37:00,50.7,48.0,30.10,ENE,74,0.0,0.0,89,0.00,,,0.00,weatherlink.com 1.10,2013-04-30 03:37:00,
2013-04-29 23:52:00,50.4,47.0,30.10,ENE,74,0.0,0.0,89,0.00,,,0.00,weatherlink.com 1.10,2013-04-30 03:52:00,